Bei Facebook empfehlenBei Twitter postenGoogle plusPinterest

Das Wetter im Erzgebirge am 08.06.2016

Wetter und Klima am 08.06.2016 Holzhau im Erzgebirge (630m ü.NN)
Letzte gemessene Temperatur und Uhrzeit der Messung23:45:00 Uhr12.60 °C
Temperatur (Maximum / Höchstwert) und Uhrzeit der Messung13:00:00 Uhr25.50 °C
Temperatur (Minimum / Tiefstwert) und Uhrzeit der Messung05:15:006.60 °C
Errechneter Absolutwert der Temperaturschwankungen zwischen Tmin und Tmax des Tages18.90 K
Errechnete Tagesmitteltemperatur16.78333 °C
Gesamt - Niederschlag des Tages (in flüssiger Form)0.00 Liter / m²
Luftdruck (Maximum / Höchstwert) und Zeitpunkt der Messung00:45:00 Uhr1018.60 hPa
Luftdruck (Minimum / Tiefstwert) und Zeitpunkt der Messung19:45:00 Uhr1012.30 hPa
Errechneter Absolutwert der Luftdruckschwankungen des Tages6.30 hPa
Höchste gemessene Windgeschwindigkeit und Uhrzeit der Messung23:45:00 Uhr0.00 km/h
Errechnete Windhäufigkeit in Relation zu den Messwerten des Tages0.00000 %
Niedrigste Windkühle (Windchill) und Zeitpunkt der Messung05:15:00 Uhr6.60 °C
Taupunkt (Maximum / Höchstwert) und Uhrzeit der Messung08:30:00 Uhr13.90 °C
Taupunkt (Minimum / Tiefstwert) und Uhrzeit der Messung03:45:004.60 °C
Anzahl der automatisch eingelesenen Messwerte 96

Detaillierte Wetter- und Klima- Messwerte für den 08.06.2016 in Holzhau im Erzgebirge (630m ü.NN)
ZeitTemperaturLuftdruckRel. LuftfeuchteWindWindrichtungWindchillTaupunktNiederschlag l/m²
23:45:0012.60 °C1013.40 hPa83.00 %9.80 °C 
23:30:0012.30 °C1013.40 hPa83.00 %9.50 °C 
23:15:0012.20 °C1013.20 hPa82.00 %9.20 °C 
23:00:0012.40 °C1013.30 hPa81.00 %9.20 °C 
22:45:0012.70 °C1013.30 hPa79.00 %9.20 °C 
22:30:0012.90 °C1013.20 hPa78.00 %9.20 °C 
22:15:0013.30 °C1013.20 hPa77.00 %9.40 °C 
22:00:0014.10 °C1013.00 hPa74.00 %9.50 °C 
21:45:0014.80 °C1013.00 hPa73.00 %10.00 °C 
21:30:0015.60 °C1012.80 hPa71.00 %10.40 °C 
21:15:0016.40 °C1012.60 hPa69.00 %10.70 °C 
21:00:0017.20 °C1012.40 hPa67.00 %11.00 °C 
20:45:0017.80 °C1012.50 hPa65.00 %11.10 °C 
20:30:0018.40 °C1012.50 hPa63.00 %11.20 °C 
20:15:0018.90 °C1012.50 hPa61.00 %11.20 °C 
20:00:0019.20 °C1012.40 hPa59.00 %11.00 °C 
19:45:0019.40 °C1012.30 hPa58.00 %10.90 °C 
19:30:0019.80 °C1012.50 hPa55.00 %10.50 °C 
19:15:0020.60 °C1012.60 hPa53.00 %10.70 °C 
19:00:0021.60 °C1012.30 hPa49.00 %10.40 °C 
18:45:0022.00 °C1012.40 hPa47.00 %10.20 °C 
18:30:0022.90 °C1012.40 hPa45.00 %10.30 °C 
18:15:0024.10 °C1012.60 hPa43.00 %10.70 °C 
18:00:0024.30 °C1012.80 hPa44.00 %11.30 °C 
17:45:0024.80 °C1013.10 hPa42.00 %11.00 °C 
17:30:0024.80 °C1013.30 hPa43.00 %11.40 °C 
17:15:0024.90 °C1013.30 hPa44.00 %11.80 °C 
17:00:0025.10 °C1013.20 hPa44.00 %12.00 °C 
16:45:0024.90 °C1013.50 hPa45.00 %12.20 °C 
16:30:0025.00 °C1013.50 hPa45.00 %12.20 °C 
16:15:0024.90 °C1013.70 hPa45.00 %12.20 °C 
16:00:0024.80 °C1013.90 hPa43.00 %11.40 °C 
15:45:0024.90 °C1013.90 hPa44.00 %11.80 °C 
15:30:0025.30 °C1013.80 hPa43.00 %11.80 °C 
15:15:0024.90 °C1013.90 hPa46.00 %12.50 °C 
15:00:0024.10 °C1013.90 hPa46.00 %11.80 °C 
14:45:0023.80 °C1014.00 hPa47.00 %11.80 °C 
14:30:0024.60 °C1014.20 hPa47.00 %12.50 °C 
14:15:0023.90 °C1014.20 hPa50.00 %12.80 °C 
14:00:0023.10 °C1014.40 hPa51.00 %12.40 °C 
13:45:0023.30 °C1014.60 hPa50.00 %12.30 °C 
13:30:0024.10 °C1014.70 hPa49.00 %12.70 °C 
13:15:0024.30 °C1014.80 hPa47.00 %12.30 °C 
13:00:0025.50 °C1014.90 hPa48.00 %13.70 °C 
12:45:0024.40 °C1015.00 hPa50.00 %13.30 °C 
12:30:0024.10 °C1015.20 hPa48.00 %12.40 °C 
12:15:0024.50 °C1015.20 hPa48.00 %12.80 °C 
12:00:0022.90 °C1015.10 hPa47.00 %11.00 °C 
11:45:0023.90 °C1015.40 hPa47.00 %11.90 °C 
11:30:0024.80 °C1015.50 hPa47.00 %12.70 °C 
11:15:0024.40 °C1015.40 hPa49.00 %13.00 °C 
11:00:0023.40 °C1015.60 hPa50.00 %12.40 °C 
10:45:0023.20 °C1015.50 hPa51.00 %12.50 °C 
10:30:0022.90 °C1015.60 hPa52.00 %12.50 °C 
10:15:0022.60 °C1015.50 hPa53.00 %12.50 °C 
10:00:0021.90 °C1015.70 hPa54.00 %12.20 °C 
09:45:0021.80 °C1015.70 hPa54.00 %12.10 °C 
09:30:0021.50 °C1015.80 hPa56.00 %12.40 °C 
09:15:0021.20 °C1015.80 hPa58.00 %12.60 °C 
09:00:0020.80 °C1015.90 hPa61.00 %13.00 °C 
08:45:0020.40 °C1016.00 hPa65.00 %13.60 °C 
08:30:0019.30 °C1016.00 hPa71.00 %13.90 °C 
08:15:0018.10 °C1016.30 hPa75.00 %13.60 °C 
08:00:0016.20 °C1016.40 hPa77.00 %12.20 °C 
07:45:0016.90 °C1016.60 hPa80.00 %13.40 °C 
07:30:0014.90 °C1016.50 hPa85.00 %12.40 °C 
07:15:0012.30 °C1016.70 hPa90.00 %10.70 °C 
07:00:008.90 °C1016.70 hPa89.00 %7.20 °C 
06:45:008.10 °C1016.80 hPa90.00 %6.60 °C 
06:30:007.50 °C1016.80 hPa90.00 %6.00 °C 
06:15:007.00 °C1016.90 hPa90.00 %5.50 °C 
06:00:006.80 °C1016.90 hPa90.00 %5.30 °C 
05:45:006.80 °C1016.90 hPa89.00 %5.10 °C 
05:30:006.70 °C1017.00 hPa89.00 %5.00 °C 
05:15:006.60 °C1017.00 hPa89.00 %4.90 °C 
05:00:006.60 °C1016.90 hPa89.00 %4.90 °C 
04:45:006.60 °C1017.00 hPa88.00 %4.80 °C 
04:30:006.60 °C1017.00 hPa88.00 %4.80 °C 
04:15:006.80 °C1017.00 hPa88.00 %5.00 °C 
04:00:006.80 °C1017.10 hPa88.00 %5.00 °C 
03:45:006.60 °C1017.10 hPa87.00 %4.60 °C 
03:30:006.80 °C1017.30 hPa87.00 %4.80 °C 
03:15:006.80 °C1017.50 hPa86.00 %4.60 °C 
03:00:007.10 °C1017.60 hPa86.00 %4.90 °C 
02:45:007.30 °C1017.80 hPa86.00 %5.10 °C 
02:30:007.60 °C1017.80 hPa86.00 %5.40 °C 
02:15:007.80 °C1017.90 hPa86.00 %5.60 °C 
02:00:007.80 °C1018.00 hPa85.00 %5.40 °C 
01:45:007.90 °C1018.00 hPa85.00 %5.50 °C 
01:30:008.10 °C1018.30 hPa84.00 %5.60 °C 
01:15:008.20 °C1018.10 hPa84.00 %5.70 °C 
01:00:008.40 °C1018.30 hPa83.00 %5.70 °C 
00:45:008.70 °C1018.60 hPa82.00 %5.80 °C 
00:30:008.90 °C1018.50 hPa82.00 %6.00 °C 
00:15:009.10 °C1018.60 hPa81.00 %6.00 °C 
00:00:009.40 °C1018.60 hPa80.00 %6.10 °C 

Permanenter Link zu dieser Seite: Wetter im Erzgebirge am 08.06.2016
Performance-Info: Die Erstellung der Seite / Statistik(en) / Tabelle(n) erforderte 5 Datenbankserver-Abfrage(n) und dauerte 102 Millisekunden. (Dieser Messwert ist von der Gesamt-Auslastung des Servers abhängig.)
Erzgebirge - Wetter | Erzgebirge - Wetter (Mobilgeräte) | Komplette Klimadatenbank